Time;durP1;ratioP1;P1;durP2;ratioP2;P2;SDS_P1;SDS_P2;PMS_P1;PMS_P2;Temp;Humidity;BMP_temperature;BMP_pressure;BME280_temperature;BME280_humidity;BME280_pressure;Samples;Min_cycle;Max_cycle;Signal;HPM_P1;HPM_P2
2022/03/04 00:02:25;;;;;;;16.53;8.67;;;2.70;99.90;;;;;;10229993;29;20564;-79
2022/03/04 00:07:47;;;;;;;18.33;7.37;;;2.70;99.90;;;;;;10241355;29;20541;-78
2022/03/04 00:13:09;;;;;;;11.80;5.23;;;2.60;99.90;;;;;;10240331;29;20439;-79
2022/03/04 00:18:31;;;;;;;11.60;4.63;;;2.60;99.90;;;;;;10255750;28;20515;-78
2022/03/04 00:23:54;;;;;;;15.67;4.70;;;2.70;99.90;;;;;;10240202;29;20249;-78
2022/03/04 00:29:16;;;;;;;8.27;4.33;;;2.60;99.90;;;;;;10240648;29;20261;-78
2022/03/04 00:34:39;;;;;;;9.87;4.30;;;2.60;99.90;;;;;;10240438;29;20197;-78
2022/03/04 00:40:02;;;;;;;11.97;4.07;;;2.50;99.90;;;;;;10238998;29;20209;-79
2022/03/04 00:45:25;;;;;;;11.07;4.60;;;2.50;99.90;;;;;;10241403;29;20204;-78
2022/03/04 00:50:47;;;;;;;17.40;6.67;;;2.60;99.90;;;;;;10254325;28;20237;-78
2022/03/04 00:56:11;;;;;;;17.10;5.47;;;2.50;99.90;;;;;;10225134;29;20200;-78
2022/03/04 01:01:33;;;;;;;14.40;5.90;;;2.50;99.90;;;;;;10238894;29;20426;-79
2022/03/04 01:06:55;;;;;;;13.80;7.33;;;2.50;99.90;;;;;;10238391;29;20197;-79
2022/03/04 01:12:17;;;;;;;8.83;4.00;;;2.50;99.90;;;;;;10253907;28;20284;-79
2022/03/04 01:17:39;;;;;;;16.33;5.13;;;2.50;99.90;;;;;;10238729;29;20193;-78
2022/03/04 01:23:01;;;;;;;9.80;3.60;;;2.50;99.90;;;;;;10239328;29;20471;-78
2022/03/04 01:28:23;;;;;;;9.20;3.37;;;2.40;99.90;;;;;;10250964;29;20468;-78
2022/03/04 01:33:45;;;;;;;13.80;4.70;;;2.40;99.90;;;;;;10237758;29;20258;-78
2022/03/04 01:39:07;;;;;;;8.27;3.90;;;2.30;99.90;;;;;;10236782;29;20205;-79
2022/03/04 01:44:29;;;;;;;5.80;2.73;;;2.30;99.90;;;;;;10249926;29;20512;-78
2022/03/04 01:49:52;;;;;;;13.50;4.00;;;2.40;99.90;;;;;;10237482;29;20601;-78
2022/03/04 01:55:14;;;;;;;12.90;4.27;;;2.40;99.90;;;;;;10237606;29;20209;-78
2022/03/04 02:00:37;;;;;;;8.23;3.17;;;2.30;99.90;;;;;;10222675;29;20210;-78
2022/03/04 02:06:02;;;;;;;6.43;3.57;;;2.30;99.90;;;;;;10236164;29;20233;-78
2022/03/04 02:11:24;;;;;;;10.47;4.50;;;2.30;99.90;;;;;;10235869;29;20245;-78
2022/03/04 02:16:49;;;;;;;12.40;3.87;;;2.30;99.90;;;;;;10236503;29;20200;-79
2022/03/04 02:22:11;;;;;;;8.80;4.27;;;2.20;99.90;;;;;;10250889;28;20207;-79
2022/03/04 02:27:33;;;;;;;6.37;3.13;;;2.20;99.90;;;;;;10251362;28;20512;-78
2022/03/04 02:32:55;;;;;;;11.23;4.20;;;2.30;99.90;;;;;;10250464;28;20233;-78
2022/03/04 02:38:17;;;;;;;9.43;2.83;;;2.30;99.90;;;;;;10248648;29;20399;-78
2022/03/04 02:43:38;;;;;;;5.33;2.27;;;2.30;99.90;;;;;;10234296;29;20204;-78
2022/03/04 02:49:03;;;;;;;8.63;3.30;;;2.30;99.90;;;;;;10234935;29;20209;-79
2022/03/04 02:54:25;;;;;;;8.07;2.80;;;2.30;99.90;;;;;;10221224;29;20287;-79
2022/03/04 02:59:47;;;;;;;9.87;3.77;;;2.20;99.90;;;;;;10235499;29;20252;-79
2022/03/04 03:05:11;;;;;;;8.77;2.90;;;2.20;99.90;;;;;;10250436;28;20205;-78
2022/03/04 03:10:33;;;;;;;11.90;4.97;;;2.30;99.90;;;;;;10250226;28;20236;-79
2022/03/04 03:15:56;;;;;;;7.30;2.67;;;2.20;99.90;;;;;;10234967;29;20264;-79
2022/03/04 03:21:19;;;;;;;9.17;4.17;;;2.20;99.90;;;;;;10247346;29;20209;-78
2022/03/04 03:26:41;;;;;;;6.60;3.60;;;2.10;99.90;;;;;;10240759;29;20526;-79
2022/03/04 03:32:03;;;;;;;6.27;2.17;;;2.00;99.90;;;;;;10257630;28;20451;-79
2022/03/04 03:37:26;;;;;;;12.20;2.60;;;2.00;99.90;;;;;;10255257;29;20214;-79
2022/03/04 03:42:47;;;;;;;10.90;2.80;;;2.00;99.90;;;;;;10242560;29;20497;-78
2022/03/04 03:48:10;;;;;;;8.63;2.40;;;2.00;99.90;;;;;;10241371;29;20200;-78
2022/03/04 03:53:32;;;;;;;5.30;1.60;;;2.00;99.90;;;;;;10254561;29;20471;-79
2022/03/04 03:58:54;;;;;;;9.63;2.50;;;2.00;99.90;;;;;;10240414;29;20201;-78
2022/03/04 04:04:19;;;;;;;5.40;1.53;;;2.00;99.90;;;;;;10240723;29;20201;-78
2022/03/04 04:09:41;;;;;;;7.37;1.73;;;2.00;99.90;;;;;;10226933;29;20237;-78
2022/03/04 04:15:04;;;;;;;5.83;2.00;;;2.00;99.90;;;;;;10240958;29;20202;-78
2022/03/04 04:20:27;;;;;;;4.43;2.07;;;2.00;99.90;;;;;;10239608;29;20201;-78
2022/03/04 04:25:49;;;;;;;9.33;2.87;;;2.10;99.90;;;;;;10254945;28;20248;-79
2022/03/04 04:31:11;;;;;;;5.27;2.23;;;2.20;99.90;;;;;;10255053;28;20219;-78
2022/03/04 04:36:34;;;;;;;10.67;2.73;;;2.00;99.90;;;;;;10251634;29;20208;-78
2022/03/04 04:41:56;;;;;;;9.97;3.00;;;2.10;99.90;;;;;;10239660;29;20205;-79
2022/03/04 04:47:18;;;;;;;5.90;2.27;;;2.00;99.90;;;;;;10252164;29;20232;-78
2022/03/04 04:52:40;;;;;;;8.90;2.47;;;1.90;99.90;;;;;;10225081;29;20238;-78
2022/03/04 04:58:02;;;;;;;8.50;2.30;;;1.90;99.90;;;;;;10239188;29;20264;-79
2022/03/04 05:03:26;;;;;;;16.63;6.53;;;1.80;99.90;;;;;;10238142;29;20195;-78
2022/03/04 05:08:48;;;;;;;23.83;7.30;;;1.80;99.90;;;;;;10224311;29;20210;-78
2022/03/04 05:14:10;;;;;;;17.53;5.73;;;1.70;99.90;;;;;;10237796;29;20316;-78
2022/03/04 05:19:32;;;;;;;13.00;6.43;;;1.60;99.90;;;;;;10224540;29;20569;-79
2022/03/04 05:24:54;;;;;;;26.10;13.70;;;1.60;99.90;;;;;;10237513;29;20232;-79
2022/03/04 05:30:16;;;;;;;41.80;21.93;;;1.50;99.90;;;;;;10252717;29;20246;-79
2022/03/04 05:35:39;;;;;;;30.73;16.13;;;1.40;99.90;;;;;;10250120;29;20504;-79
2022/03/04 05:41:01;;;;;;;23.60;13.07;;;1.40;99.90;;;;;;10252231;29;20500;-78
2022/03/04 05:46:23;;;;;;;12.10;5.43;;;1.40;99.90;;;;;;10252008;29;20295;-78
2022/03/04 05:51:45;;;;;;;6.87;2.90;;;1.40;99.90;;;;;;10251848;28;20295;-78
2022/03/04 05:57:07;;;;;;;11.97;4.97;;;1.40;99.90;;;;;;10235863;29;20514;-78
2022/03/04 06:02:31;;;;;;;21.77;8.67;;;1.30;99.90;;;;;;10222615;29;20259;-79
2022/03/04 06:07:52;;;;;;;31.43;10.70;;;1.30;99.90;;;;;;10251110;28;20200;-78
2022/03/04 06:13:14;;;;;;;26.10;10.43;;;1.40;99.90;;;;;;10222095;29;20232;-79
2022/03/04 06:18:37;;;;;;;21.87;8.70;;;1.40;99.90;;;;;;10236162;29;20521;-79
2022/03/04 06:23:59;;;;;;;25.73;9.93;;;1.40;99.90;;;;;;10234357;29;20287;-78
2022/03/04 06:29:21;;;;;;;17.87;7.03;;;1.40;99.90;;;;;;10237041;29;20257;-79
2022/03/04 06:34:43;;;;;;;17.40;6.73;;;1.50;99.90;;;;;;10235436;29;20235;-78
2022/03/04 06:40:06;;;;;;;16.30;7.27;;;1.60;99.90;;;;;;10234293;29;20314;-79
2022/03/04 06:45:28;;;;;;;17.17;7.37;;;1.70;99.90;;;;;;10247888;29;20278;-79
2022/03/04 06:50:51;;;;;;;41.37;18.30;;;2.00;99.90;;;;;;10249839;28;20276;-79
2022/03/04 06:56:16;;;;;;;70.93;28.77;;;2.50;99.90;;;;;;10234114;29;20236;-78
2022/03/04 07:01:39;;;;;;;20.20;8.63;;;3.30;99.90;;;;;;10249192;29;20203;-79
2022/03/04 07:07:02;;;;;;;39.53;17.87;;;4.70;99.90;;;;;;10233637;29;20251;-78
2022/03/04 07:12:25;;;;;;;17.27;9.50;;;5.80;99.90;;;;;;10234880;29;20226;-80
2022/03/04 07:17:47;;;;;;;18.43;10.03;;;6.40;99.90;;;;;;10234593;29;20497;-78
2022/03/04 07:23:10;;;;;;;45.27;18.33;;;6.50;99.90;;;;;;10233981;29;20574;-79
2022/03/04 07:28:32;;;;;;;12.13;6.97;;;7.20;99.90;;;;;;10249259;29;20233;-79
2022/03/04 07:33:54;;;;;;;8.67;3.27;;;8.40;99.90;;;;;;10246766;29;20226;-79
2022/03/04 07:39:17;;;;;;;7.80;3.43;;;9.10;99.90;;;;;;10232918;29;20370;-79
2022/03/04 07:44:39;;;;;;;8.33;3.20;;;9.10;99.90;;;;;;10234125;29;20255;-79
2022/03/04 07:50:06;;;;;;;5.90;3.60;;;8.90;99.90;;;;;;10248817;28;20208;-79
2022/03/04 07:55:29;;;;;;;7.87;3.87;;;8.00;99.90;;;;;;10248880;28;20214;-78
2022/03/04 08:00:51;;;;;;;9.63;3.53;;;6.60;99.90;;;;;;10233879;29;20643;-79
2022/03/04 08:06:23;;;;;;;21.83;8.87;;;6.00;99.90;;;;;;10248131;28;20211;-78
2022/03/04 08:11:46;;;;;;;26.13;12.00;;;5.60;99.90;;;;;;10236921;29;20229;-79
2022/03/04 08:17:08;;;;;;;35.73;13.23;;;5.10;99.90;;;;;;10255543;29;20209;-78
2022/03/04 08:22:31;;;;;;;13.13;5.87;;;5.00;99.90;;;;;;10196593;28;20441;-79
2022/03/04 08:27:53;;;;;;;7.23;2.50;;;6.10;99.90;;;;;;10223700;29;20520;-80
2022/03/04 08:33:16;;;;;;;20.08;8.35;;;8.50;99.90;;;;;;10234568;29;20541;-81
2022/03/04 08:38:38;;;;;;;18.45;8.40;;;10.60;99.90;;;;;;10248658;28;20492;-80
2022/03/04 08:44:01;;;;;;;16.38;7.22;;;11.90;85.20;;;;;;10233175;29;20201;-79
2022/03/04 08:49:23;;;;;;;4.30;2.28;;;10.60;81.10;;;;;;10236542;29;20488;-79
2022/03/04 08:54:46;;;;;;;11.27;4.57;;;9.80;92.10;;;;;;10233085;29;20245;-79
2022/03/04 09:00:09;;;;;;;7.70;3.42;;;9.60;94.20;;;;;;10246873;29;20203;-89
2022/03/04 09:05:31;;;;;;;4.22;2.45;;;10.00;94.00;;;;;;10228768;29;20208;-85
2022/03/04 09:10:53;;;;;;;5.75;1.83;;;10.50;89.90;;;;;;10210884;29;20224;-79
2022/03/04 09:16:15;;;;;;;4.23;2.03;;;10.80;72.90;;;;;;10213760;29;20282;-77
2022/03/04 09:21:38;;;;;;;9.57;4.37;;;10.00;89.30;;;;;;10218635;29;20282;-79
2022/03/04 09:27:00;;;;;;;5.10;1.97;;;9.10;94.70;;;;;;10194472;29;20294;-78
2022/03/04 09:32:23;;;;;;;3.67;2.00;;;7.90;99.40;;;;;;10191920;29;20306;-78
2022/03/04 09:37:45;;;;;;;24.23;8.27;;;7.30;99.90;;;;;;10207836;29;20294;-76
2022/03/04 09:43:08;;;;;;;27.23;9.73;;;7.80;99.90;;;;;;10193156;29;20211;-78
2022/03/04 09:48:30;;;;;;;35.20;13.83;;;8.10;99.90;;;;;;10179282;29;20216;-80
2022/03/04 09:53:52;;;;;;;16.37;6.00;;;8.00;99.90;;;;;;10192740;29;20228;-79
2022/03/04 09:59:14;;;;;;;22.77;7.43;;;8.40;99.90;;;;;;10204738;29;20222;-79
2022/03/04 10:04:38;;;;;;;6.93;2.87;;;7.80;99.90;;;;;;10193207;29;20425;-82
2022/03/04 10:10:02;;;;;;;12.80;2.90;;;7.20;99.90;;;;;;10203026;29;20222;-79
2022/03/04 10:15:25;;;;;;;20.77;6.10;;;6.80;99.90;;;;;;10187959;29;20238;-79
2022/03/04 10:20:47;;;;;;;44.00;18.47;;;6.90;99.90;;;;;;10185104;29;20241;-77
2022/03/04 10:26:09;;;;;;;45.23;16.63;;;6.50;99.90;;;;;;10187192;29;20292;-79
2022/03/04 10:31:31;;;;;;;30.57;11.33;;;6.30;99.90;;;;;;10194798;29;20240;-77
2022/03/04 10:37:15;;;;;;;36.03;13.47;;;6.20;99.90;;;;;;10167121;29;20551;-78
2022/03/04 10:42:46;;;;;;;14.33;5.80;;;6.20;99.90;;;;;;10190106;29;20201;-77
2022/03/04 10:48:10;;;;;;;7.23;2.20;;;5.90;99.90;;;;;;10184375;29;20209;-79
2022/03/04 10:53:33;;;;;;;8.17;3.47;;;5.90;99.90;;;;;;10185585;29;20236;-79
2022/03/04 10:59:06;;;;;;;6.33;3.43;;;5.80;99.90;;;;;;10152390;29;20212;-77
2022/03/04 11:04:28;;;;;;;10.53;3.63;;;5.60;99.90;;;;;;10189013;29;20513;-78
2022/03/04 11:09:51;;;;;;;5.27;3.20;;;5.60;99.90;;;;;;10171443;29;20204;-76
2022/03/04 11:15:13;;;;;;;8.83;3.70;;;5.40;99.90;;;;;;10192530;29;20301;-77
2022/03/04 11:20:36;;;;;;;9.90;4.00;;;5.20;99.90;;;;;;10187153;29;20566;-78
2022/03/04 11:26:22;;;;;;;7.77;4.50;;;5.20;99.90;;;;;;10184321;29;20237;-77
2022/03/04 11:31:44;;;;;;;13.50;7.87;;;5.20;99.90;;;;;;10178448;29;20242;-78
2022/03/04 11:37:18;;;;;;;22.73;11.43;;;5.40;99.90;;;;;;10180386;29;20206;-77
2022/03/04 11:42:43;;;;;;;11.50;4.90;;;5.60;99.90;;;;;;10203561;29;20584;-77
2022/03/04 11:48:14;;;;;;;13.67;7.27;;;5.40;99.90;;;;;;10176000;29;20212;-77
2022/03/04 11:53:36;;;;;;;12.57;4.80;;;5.50;99.90;;;;;;10185528;29;20241;-77
2022/03/04 11:59:05;;;;;;;14.57;4.90;;;5.80;99.90;;;;;;10180285;29;20204;-78
2022/03/04 12:04:28;;;;;;;48.47;18.33;;;7.20;99.90;;;;;;10181544;29;20257;-78
2022/03/04 12:09:55;;;;;;;34.47;12.63;;;9.40;99.90;;;;;;10207532;29;20262;-77
2022/03/04 12:15:19;;;;;;;29.27;13.93;;;8.20;99.90;;;;;;10195693;29;20231;-80
2022/03/04 12:20:42;;;;;;;16.07;7.70;;;6.80;99.90;;;;;;10197340;29;20260;-78
2022/03/04 12:26:05;;;;;;;6.37;4.17;;;5.90;99.90;;;;;;10206974;29;20245;-78
2022/03/04 12:31:32;;;;;;;6.33;3.53;;;5.40;99.90;;;;;;10175321;29;20259;-77
2022/03/04 12:36:55;;;;;;;11.20;4.93;;;5.20;99.90;;;;;;10189994;29;20231;-79
2022/03/04 12:42:20;;;;;;;10.53;4.67;;;5.40;99.90;;;;;;10208917;29;20220;-79
2022/03/04 12:47:42;;;;;;;24.27;10.10;;;5.50;99.90;;;;;;10189642;29;20212;-81
2022/03/04 12:53:24;;;;;;;56.40;21.30;;;6.50;99.90;;;;;;10177536;29;20391;-78
2022/03/04 12:58:52;;;;;;;14.93;6.40;;;7.20;99.90;;;;;;10205865;29;20188;-79
2022/03/04 13:04:15;;;;;;;13.80;5.70;;;6.80;99.90;;;;;;10190488;29;20243;-80
2022/03/04 13:09:36;;;;;;;14.53;4.40;;;6.30;99.90;;;;;;10178024;29;20196;-81
2022/03/04 13:15:11;;;;;;;10.77;5.13;;;5.90;99.90;;;;;;10201517;29;20262;-80
2022/03/04 13:20:33;;;;;;;13.30;4.40;;;5.60;99.90;;;;;;10192801;29;20209;-79
2022/03/04 13:26:09;;;;;;;7.70;3.17;;;5.70;99.90;;;;;;10162752;29;20531;-79
2022/03/04 13:31:36;;;;;;;4.40;2.10;;;5.60;99.90;;;;;;10194364;29;20565;-78
2022/03/04 13:37:02;;;;;;;6.47;2.80;;;5.40;99.90;;;;;;10166573;29;20244;-80
2022/03/04 13:42:27;;;;;;;6.67;3.10;;;5.50;99.90;;;;;;10205398;29;20281;-78
2022/03/04 13:47:58;;;;;;;7.90;3.60;;;6.60;99.90;;;;;;10192179;29;20439;-83
2022/03/04 13:53:21;;;;;;;6.07;3.53;;;6.70;99.90;;;;;;10192370;29;20230;-80
2022/03/04 13:58:56;;;;;;;20.57;8.40;;;6.20;99.90;;;;;;10177396;29;20392;-79
2022/03/04 14:04:19;;;;;;;29.23;12.07;;;5.90;99.90;;;;;;10166354;29;20510;-78
2022/03/04 14:09:45;;;;;;;19.00;8.23;;;5.40;99.90;;;;;;10167310;29;20198;-81
2022/03/04 14:15:08;;;;;;;9.47;3.60;;;5.20;99.90;;;;;;10187566;29;20243;-80
2022/03/04 14:20:31;;;;;;;7.00;3.50;;;5.20;99.90;;;;;;10188754;29;20330;-79
2022/03/04 14:25:57;;;;;;;12.27;6.37;;;5.10;99.90;;;;;;10197252;29;20251;-81
2022/03/04 14:31:23;;;;;;;11.27;5.23;;;5.00;99.90;;;;;;10181010;29;20199;-80
2022/03/04 14:36:46;;;;;;;12.40;6.37;;;4.90;99.90;;;;;;10173160;29;20219;-80
2022/03/04 14:42:29;;;;;;;9.07;3.20;;;4.80;99.90;;;;;;10177676;29;20291;-81
2022/03/04 14:47:54;;;;;;;9.93;3.20;;;4.70;99.90;;;;;;10207854;29;20227;-80
2022/03/04 14:53:15;;;;;;;13.87;6.80;;;4.70;99.90;;;;;;10198575;29;20253;-77
2022/03/04 14:58:37;;;;;;;11.90;6.00;;;4.70;99.90;;;;;;10194048;29;20199;-79
2022/03/04 15:03:59;;;;;;;10.03;4.57;;;4.70;99.90;;;;;;10176475;29;20219;-80
2022/03/04 15:09:22;;;;;;;10.07;3.53;;;4.80;99.90;;;;;;10160178;29;20211;-81
2022/03/04 15:14:52;;;;;;;13.50;5.27;;;4.80;99.90;;;;;;10178110;29;20355;-82
2022/03/04 15:20:15;;;;;;;20.87;9.63;;;4.70;99.90;;;;;;10212537;29;20198;-79
2022/03/04 15:25:37;;;;;;;20.50;9.27;;;4.60;99.90;;;;;;10203043;29;20804;-80
2022/03/04 15:31:00;;;;;;;9.17;4.40;;;4.60;99.90;;;;;;10184566;29;20263;-80
2022/03/04 15:36:22;;;;;;;6.63;3.90;;;4.60;99.90;;;;;;10208757;29;20211;-81
2022/03/04 15:41:48;;;;;;;9.60;4.43;;;4.70;99.90;;;;;;10195379;29;20209;-80
2022/03/04 15:47:10;;;;;;;15.40;4.37;;;4.60;99.90;;;;;;10196856;29;20275;-79
2022/03/04 15:52:33;;;;;;;15.47;5.10;;;4.50;99.90;;;;;;10189521;29;20230;-80
2022/03/04 15:57:55;;;;;;;12.90;7.83;;;4.30;99.90;;;;;;10178965;29;20230;-79
2022/03/04 16:03:17;;;;;;;14.17;7.03;;;4.20;99.90;;;;;;10181854;29;20204;-81
2022/03/04 16:08:39;;;;;;;14.37;6.17;;;4.00;99.90;;;;;;10171499;29;20195;-79
2022/03/04 16:14:02;;;;;;;11.33;5.73;;;3.80;99.90;;;;;;10199306;29;20465;-79
2022/03/04 16:19:24;;;;;;;9.03;3.83;;;3.70;99.90;;;;;;10199557;29;20520;-80
2022/03/04 16:24:46;;;;;;;10.73;4.30;;;3.60;99.90;;;;;;10214918;29;20247;-79
2022/03/04 16:30:09;;;;;;;15.67;7.10;;;3.60;99.90;;;;;;10198366;29;20386;-79
2022/03/04 16:35:31;;;;;;;8.37;4.83;;;3.40;99.90;;;;;;10183251;29;20291;-79
2022/03/04 16:40:53;;;;;;;14.13;6.90;;;3.40;99.90;;;;;;10210848;29;20196;-79
2022/03/04 16:46:16;;;;;;;18.33;8.73;;;3.30;99.90;;;;;;10213802;29;20228;-79
2022/03/04 16:51:47;;;;;;;50.67;26.43;;;3.20;99.90;;;;;;10215017;29;20231;-79
2022/03/04 16:57:09;;;;;;;44.90;22.20;;;3.00;99.90;;;;;;10199264;29;20210;-78
2022/03/04 17:02:30;;;;;;;51.47;24.83;;;2.90;99.90;;;;;;10185304;29;20564;-78
2022/03/04 17:07:55;;;;;;;43.30;23.33;;;2.90;99.90;;;;;;10212164;29;20272;-79
2022/03/04 17:13:17;;;;;;;42.33;20.57;;;2.80;99.90;;;;;;10215238;29;20413;-79
2022/03/04 17:18:40;;;;;;;34.60;18.07;;;2.70;99.90;;;;;;10214228;29;20199;-79
2022/03/04 17:24:02;;;;;;;37.57;16.60;;;2.60;99.90;;;;;;10210384;29;20235;-79
2022/03/04 17:29:24;;;;;;;42.67;23.87;;;2.50;99.90;;;;;;10185810;29;20500;-79
2022/03/04 17:34:47;;;;;;;44.50;25.03;;;2.40;99.90;;;;;;10183948;29;20227;-78
2022/03/04 17:40:10;;;;;;;28.67;13.73;;;2.30;99.90;;;;;;10184159;29;20215;-79
2022/03/04 17:45:32;;;;;;;27.77;12.67;;;2.20;99.90;;;;;;10197773;29;20205;-79
2022/03/04 17:50:54;;;;;;;39.33;15.17;;;2.10;99.90;;;;;;10196708;29;20205;-78
2022/03/04 17:56:17;;;;;;;51.23;21.30;;;2.10;99.90;;;;;;10196719;29;20259;-79
2022/03/04 18:01:39;;;;;;;51.87;22.00;;;2.10;99.90;;;;;;10183082;29;20230;-79
2022/03/04 18:07:01;;;;;;;41.00;20.00;;;2.00;99.90;;;;;;10196529;29;20207;-79
2022/03/04 18:12:25;;;;;;;34.57;17.80;;;2.00;99.90;;;;;;10196706;29;20572;-78
2022/03/04 18:17:48;;;;;;;34.63;16.53;;;1.90;99.90;;;;;;10209648;29;20225;-79
2022/03/04 18:23:10;;;;;;;36.43;18.60;;;1.90;99.90;;;;;;10181758;29;20257;-79
2022/03/04 18:28:34;;;;;;;59.57;27.50;;;1.80;99.90;;;;;;10195574;29;20208;-79
2022/03/04 18:33:56;;;;;;;75.73;32.83;;;1.70;99.90;;;;;;10198621;29;20229;-79
2022/03/04 18:50:41;;;;;;;73.50;32.43;;;1.70;99.90;;;;;;10211158;29;20208;-78
2022/03/04 18:56:03;;;;;;;72.60;28.67;;;1.80;99.90;;;;;;10195341;29;20405;-79
2022/03/04 19:01:48;;;;;;;30.23;12.43;;;1.80;99.90;;;;;;10210842;29;20294;-79
2022/03/04 19:07:10;;;;;;;16.20;8.00;;;1.80;99.90;;;;;;10208274;29;20204;-79
2022/03/04 19:12:35;;;;;;;14.40;7.47;;;1.70;99.90;;;;;;10197264;29;20221;-79
2022/03/04 19:17:57;;;;;;;27.23;14.83;;;1.60;99.90;;;;;;10195006;29;20210;-78
2022/03/04 19:23:20;;;;;;;66.00;27.30;;;1.60;99.90;;;;;;10180722;29;20234;-79
2022/03/04 19:28:42;;;;;;;112.13;40.03;;;1.50;99.90;;;;;;10195493;29;20200;-79
2022/03/04 19:34:04;;;;;;;111.67;40.80;;;1.50;99.90;;;;;;10196595;29;20235;-79
2022/03/04 19:39:28;;;;;;;79.23;31.20;;;1.50;99.90;;;;;;10195492;29;20388;-78
2022/03/04 19:44:51;;;;;;;60.60;26.07;;;1.40;99.90;;;;;;10210078;29;20206;-80
2022/03/04 19:50:14;;;;;;;38.07;19.40;;;1.40;99.90;;;;;;10209908;29;20242;-80
2022/03/04 19:55:35;;;;;;;22.77;11.27;;;1.40;99.90;;;;;;10194674;29;20228;-80
2022/03/04 20:00:59;;;;;;;14.77;8.70;;;1.30;99.90;;;;;;10194126;29;20190;-80
2022/03/04 20:06:20;;;;;;;15.33;7.63;;;1.30;99.90;;;;;;10199189;29;20231;-80
2022/03/04 20:11:43;;;;;;;25.50;10.77;;;1.20;99.90;;;;;;10201938;29;20201;-80
2022/03/04 20:17:06;;;;;;;35.00;13.37;;;1.20;99.90;;;;;;10200979;29;20200;-80
2022/03/04 20:22:28;;;;;;;17.30;7.07;;;1.20;99.90;;;;;;10212899;29;20212;-78
2022/03/04 20:27:50;;;;;;;20.50;8.97;;;1.10;99.90;;;;;;10216109;29;20434;-79
2022/03/04 20:33:13;;;;;;;23.73;9.43;;;1.20;99.90;;;;;;10201207;29;20247;-79
2022/03/04 20:38:37;;;;;;;29.67;12.33;;;1.20;99.90;;;;;;10200823;29;20198;-80
2022/03/04 20:43:59;;;;;;;10.17;4.63;;;1.30;99.90;;;;;;10212963;29;20262;-79
2022/03/04 20:49:21;;;;;;;14.07;4.73;;;1.20;99.90;;;;;;10173456;29;20198;-79
2022/03/04 20:54:43;;;;;;;33.77;10.67;;;1.20;99.90;;;;;;10212739;29;20284;-79
2022/03/04 21:00:07;;;;;;;19.77;5.97;;;1.20;99.90;;;;;;10215094;29;20245;-80
2022/03/04 21:05:29;;;;;;;16.30;6.73;;;1.20;99.90;;;;;;10214705;29;20211;-79
2022/03/04 21:10:51;;;;;;;31.63;11.23;;;1.10;99.90;;;;;;10214359;29;20552;-78
2022/03/04 21:16:14;;;;;;;53.07;19.30;;;1.10;99.90;;;;;;10194291;29;20228;-79
2022/03/04 21:21:36;;;;;;;41.77;17.07;;;1.20;99.90;;;;;;10197466;29;20215;-79
2022/03/04 21:26:59;;;;;;;27.43;9.97;;;1.20;99.90;;;;;;10211552;29;20229;-79
2022/03/04 21:32:20;;;;;;;18.70;5.53;;;1.30;99.90;;;;;;10198938;29;20279;-79
2022/03/04 21:37:42;;;;;;;17.43;5.60;;;1.30;99.90;;;;;;10198808;29;20559;-79
2022/03/04 21:43:05;;;;;;;9.13;3.30;;;1.20;99.90;;;;;;10198704;29;20188;-79
2022/03/04 21:48:27;;;;;;;15.47;4.47;;;1.20;99.90;;;;;;10198325;29;20207;-79
2022/03/04 21:53:49;;;;;;;13.17;3.70;;;1.20;99.90;;;;;;10197319;29;20226;-80
2022/03/04 21:59:11;;;;;;;9.50;3.57;;;1.10;99.90;;;;;;10196571;29;20221;-79
2022/03/04 22:04:33;;;;;;;22.20;7.93;;;1.10;99.90;;;;;;10197210;29;20295;-79
2022/03/04 22:09:55;;;;;;;21.47;5.50;;;1.10;99.90;;;;;;10199285;29;20202;-78
2022/03/04 22:15:17;;;;;;;15.80;5.13;;;1.00;99.90;;;;;;10212118;29;20281;-79
2022/03/04 22:20:40;;;;;;;11.13;4.27;;;1.00;99.90;;;;;;10211227;29;20529;-79
2022/03/04 22:26:02;;;;;;;13.27;4.93;;;1.00;99.90;;;;;;10195596;29;20251;-78
2022/03/04 22:31:24;;;;;;;7.70;2.83;;;0.90;99.90;;;;;;10196317;29;20220;-80
2022/03/04 22:36:46;;;;;;;13.10;4.60;;;0.90;99.90;;;;;;10195932;29;20239;-79
2022/03/04 22:42:08;;;;;;;8.10;2.40;;;0.90;99.90;;;;;;10211506;29;20209;-78
2022/03/04 22:47:30;;;;;;;17.17;5.20;;;0.80;99.90;;;;;;10196086;29;20200;-78
2022/03/04 22:52:52;;;;;;;10.47;3.73;;;0.80;99.90;;;;;;10195360;29;20217;-78
2022/03/04 22:58:14;;;;;;;7.87;3.80;;;0.70;99.90;;;;;;10196110;29;20201;-78
2022/03/04 23:09:16;;;;;;;12.40;4.47;;;0.60;99.90;;;;;;10210012;29;20205;-79
2022/03/04 23:14:38;;;;;;;26.23;10.37;;;0.60;99.90;;;;;;10194939;29;20227;-79
2022/03/04 23:20:00;;;;;;;32.23;13.17;;;0.50;99.90;;;;;;10194268;29;20403;-78
2022/03/04 23:25:22;;;;;;;15.30;7.80;;;0.50;99.90;;;;;;10193856;29;20253;-79
2022/03/04 23:30:45;;;;;;;16.33;7.30;;;0.50;99.90;;;;;;10202968;29;20207;-78
2022/03/04 23:36:09;;;;;;;23.80;9.00;;;0.40;99.90;;;;;;10156624;29;20245;-78
2022/03/04 23:41:31;;;;;;;24.10;10.00;;;0.40;99.90;;;;;;10158820;29;20202;-78
2022/03/04 23:46:53;;;;;;;29.00;10.73;;;0.40;99.90;;;;;;10170560;29;20584;-78
2022/03/04 23:52:15;;;;;;;32.87;13.17;;;0.30;99.90;;;;;;10201989;29;20189;-78
2022/03/04 23:57:36;;;;;;;34.30;14.67;;;0.30;99.90;;;;;;10202832;29;20264;-79
